Airborne Airpark Wilmington US
ICAO: KILN
IATA: ILN
Category: Medium
Scheduled Services: No

Elevation: 1077 ft
TransAlt. 18000 ft.

Airport Communications:
DAYTON APP/DEP:118.85
ASOS:126.675
ATIS:124.925
CLNC DEL:125.6
CTAF:119.475
GND:121.6
WILMINGTON TWR:119.475

KILN Zoom In..

If you have problems with the map follow the link
https://www.worldairports.se/pages/airport.php?
ICAO=KILN

Runways:

(A) RW 04L length 10701 ft width 150 ft
ILS 110.70 / hdg 41

(B) RW 04R length 9000 ft width 150 ft
ILS 109.35 / hdg 41

(C) RW 22L length 9000 ft width 150 ft
ILS 109.35 / hdg 221

(D) RW 22R length 10701 ft width 150 ft
ILS 110.70 / hdg 221

Location; KILN
Day. 29 / Time. 17.54 Zulu
* Altimeter: 30.13
* Temperature: 00° c. 32°f.
* Wind from: 080° Speed 05 kn.
Dewpoint: -04° c.
Visibility: 10 Statute Miles.
Clouds: Overcast 2300 ft.

KILN 291754Z AUTO 08005KT 10SM OVC023 00/M04 A3013 RMK AO2 SLP227 60000 T00001044 10000 21011 58010


Wind From 080°
Speed 05 kn.

 
 
jpsmedia worldairports.se 2020   terms of use